Time;durP1;ratioP1;P1;durP2;ratioP2;P2;SDS_P1;SDS_P2;PMS_P1;PMS_P2;Temp;Humidity;BMP_temperature;BMP_pressure;BME280_temperature;BME280_humidity;BME280_pressure;Samples;Min_cycle;Max_cycle;Signal;HPM_P1;HPM_P2
2021/05/06 00:33:49;;;;;;;11.27;7.57;;;5.90;80.20;;;;;;5104505;28;20406;-36
2021/05/06 00:36:15;;;;;;;10.90;7.03;;;6.00;79.80;;;;;;5092701;28;20050;-36
2021/05/06 00:38:53;;;;;;;11.73;7.88;;;6.20;79.60;;;;;;5094705;28;20479;-36
2021/05/06 00:44:19;;;;;;;12.82;6.97;;;6.10;79.70;;;;;;5094258;28;20039;-36
2021/05/06 00:56:10;;;;;;;17.40;7.93;;;6.20;79.70;;;;;;5094211;28;20035;-36
2021/05/06 01:00:52;;;;;;;11.32;8.10;;;5.90;81.00;;;;;;5094190;28;20031;-36
2021/05/06 01:06:00;;;;;;;11.20;7.35;;;5.80;82.10;;;;;;5094736;28;20024;-35
2021/05/06 01:08:31;;;;;;;12.93;8.23;;;5.70;82.40;;;;;;5097947;28;20024;-36
2021/05/06 01:13:28;;;;;;;12.75;7.43;;;5.70;83.00;;;;;;5097928;28;20055;-36
2021/05/06 01:15:54;;;;;;;17.70;10.20;;;5.70;83.40;;;;;;5097381;28;20039;-36
2021/05/06 01:18:21;;;;;;;15.07;7.40;;;5.50;84.50;;;;;;5097744;28;20112;-36
2021/05/06 01:20:51;;;;;;;12.05;7.22;;;5.50;83.70;;;;;;5097958;28;20391;-38
2021/05/06 01:23:18;;;;;;;22.20;9.13;;;5.50;83.60;;;;;;5096717;28;20020;-35
2021/05/06 01:25:52;;;;;;;13.15;7.93;;;5.30;84.20;;;;;;5097427;28;20269;-35
2021/05/06 01:28:21;;;;;;;16.90;7.78;;;5.30;84.90;;;;;;5097608;28;20032;-37
2021/05/06 01:30:54;;;;;;;11.73;7.03;;;5.30;85.00;;;;;;5097392;28;20030;-35
2021/05/06 01:35:56;;;;;;;21.77;10.15;;;5.40;84.30;;;;;;5097591;28;20078;-36
2021/05/06 01:41:06;;;;;;;10.55;7.40;;;5.40;85.00;;;;;;5097982;28;20035;-36
2021/05/06 01:43:46;;;;;;;12.07;7.22;;;5.40;84.10;;;;;;5096836;28;20047;-36
2021/05/06 02:00:10;;;;;;;12.00;9.25;;;5.30;84.80;;;;;;5096774;28;20506;-37
2021/05/06 02:02:15;;;;;;;13.45;9.00;;;5.30;84.70;;;;;;5098782;28;20125;-36
2021/05/06 02:04:41;;;;;;;18.92;8.88;;;5.30;84.20;;;;;;5095157;28;20020;-36
2021/05/06 02:07:07;;;;;;;16.70;8.80;;;5.30;85.00;;;;;;5096595;28;20403;-36
2021/05/06 02:09:32;;;;;;;14.85;9.48;;;5.30;85.70;;;;;;5096216;28;20472;-36
2021/05/06 02:11:58;;;;;;;16.52;9.50;;;5.50;85.00;;;;;;5096082;28;20024;-36
2021/05/06 02:14:24;;;;;;;17.80;8.77;;;5.60;85.00;;;;;;5096329;28;20048;-36
2021/05/06 02:16:50;;;;;;;16.70;8.95;;;5.70;84.60;;;;;;5095481;28;20035;-35
2021/05/06 02:19:25;;;;;;;14.68;8.88;;;5.60;84.80;;;;;;5095720;28;20028;-36
2021/05/06 02:21:50;;;;;;;14.15;9.18;;;5.50;85.00;;;;;;5096058;28;20024;-35
2021/05/06 02:24:16;;;;;;;17.27;9.70;;;5.50;85.20;;;;;;5096262;28;20043;-35
2021/05/06 02:26:41;;;;;;;16.92;9.15;;;5.50;83.40;;;;;;5095801;28;20031;-35
2021/05/06 02:29:07;;;;;;;15.32;10.85;;;5.50;82.10;;;;;;5094511;28;20361;-35
2021/05/06 02:31:33;;;;;;;12.80;9.13;;;5.80;83.60;;;;;;5095782;28;20024;-36
2021/05/06 02:33:58;;;;;;;13.60;9.32;;;5.70;83.40;;;;;;5095767;28;20137;-35
2021/05/06 02:36:24;;;;;;;17.63;11.35;;;5.60;84.20;;;;;;5095977;28;20085;-35
2021/05/06 02:38:49;;;;;;;13.80;10.35;;;5.70;84.30;;;;;;5095707;28;20020;-35
2021/05/06 02:41:15;;;;;;;15.77;10.75;;;5.70;84.40;;;;;;5095882;28;20120;-35
2021/05/06 02:43:41;;;;;;;19.77;10.75;;;5.50;85.20;;;;;;5095830;28;20449;-35
2021/05/06 02:46:06;;;;;;;16.52;11.45;;;5.50;85.20;;;;;;5096024;28;20376;-36
2021/05/06 02:48:32;;;;;;;16.67;10.70;;;5.40;85.00;;;;;;5094364;28;20070;-35
2021/05/06 02:51:01;;;;;;;21.17;12.40;;;5.30;85.30;;;;;;5095651;28;20040;-35
2021/05/06 02:53:31;;;;;;;12.30;10.32;;;5.30;84.50;;;;;;5096023;28;20038;-35
2021/05/06 03:03:51;;;;;;;19.08;12.55;;;5.10;86.70;;;;;;5096029;28;20463;-36
2021/05/06 03:06:27;;;;;;;17.15;13.15;;;5.20;86.40;;;;;;5095686;28;20028;-37
2021/05/06 03:09:22;;;;;;;16.40;12.20;;;5.10;86.60;;;;;;5095629;28;20028;-37
2021/05/06 03:25:08;;;;;;;16.75;11.02;;;5.30;87.20;;;;;;5095105;28;20451;-36
2021/05/06 03:27:37;;;;;;;14.45;10.77;;;5.30;87.10;;;;;;5094959;28;20020;-36
2021/05/06 03:32:42;;;;;;;18.80;13.30;;;5.30;87.00;;;;;;5094900;28;20020;-36
2021/05/06 03:36:03;;;;;;;14.48;9.73;;;5.30;87.10;;;;;;5095287;28;20103;-36
2021/05/06 04:37:49;;;;;;;14.68;9.20;;;5.50;86.90;;;;;;5094134;28;20074;-35
2021/05/06 05:06:41;;;;;;;18.23;14.02;;;5.70;86.30;;;;;;5093900;28;20024;-36
2021/05/06 05:12:05;;;;;;;24.67;16.02;;;5.80;86.30;;;;;;5093886;28;20065;-36
2021/05/06 05:17:38;;;;;;;19.77;14.35;;;5.80;85.90;;;;;;5092326;28;20032;-36
2021/05/06 05:20:08;;;;;;;20.83;14.63;;;5.80;86.10;;;;;;5093763;28;20132;-36
2021/05/06 05:27:47;;;;;;;24.48;16.23;;;5.80;86.30;;;;;;5093284;28;20031;-36
2021/05/06 05:30:13;;;;;;;21.52;16.38;;;5.80;86.30;;;;;;5093011;28;20028;-37
2021/05/06 05:32:39;;;;;;;21.13;15.52;;;5.80;86.80;;;;;;5093332;28;20024;-35
2021/05/06 05:35:23;;;;;;;33.38;19.35;;;5.80;86.50;;;;;;5093205;28;20020;-35
2021/05/06 05:37:53;;;;;;;25.25;18.42;;;5.80;86.20;;;;;;5091959;28;20078;-35
2021/05/06 05:40:28;;;;;;;26.67;18.05;;;5.80;86.20;;;;;;5093486;28;20406;-36
2021/05/06 05:43:12;;;;;;;29.67;18.05;;;5.80;86.10;;;;;;5093360;28;20036;-35
2021/05/06 05:46:29;;;;;;;27.55;17.48;;;5.90;86.00;;;;;;5093270;28;20024;-35
2021/05/06 05:56:41;;;;;;;21.48;17.60;;;6.00;85.70;;;;;;5096935;28;20039;-35
2021/05/06 05:59:08;;;;;;;30.10;18.35;;;6.00;85.50;;;;;;5095516;28;20028;-35
2021/05/06 06:01:33;;;;;;;24.15;17.17;;;6.10;84.90;;;;;;5096727;28;20051;-35
2021/05/06 06:03:59;;;;;;;21.05;15.55;;;6.10;85.00;;;;;;5097215;28;20028;-36
2021/05/06 06:06:25;;;;;;;21.73;16.00;;;6.10;84.00;;;;;;5096742;28;20046;-36
2021/05/06 06:08:51;;;;;;;23.65;16.80;;;5.90;84.60;;;;;;5096410;28;20024;-36
2021/05/06 06:11:17;;;;;;;20.77;16.52;;;6.10;84.20;;;;;;5096742;28;20383;-36
2021/05/06 06:13:46;;;;;;;19.77;16.13;;;6.00;84.30;;;;;;5096431;28;20024;-36
2021/05/06 06:16:20;;;;;;;28.20;17.08;;;6.30;83.60;;;;;;5096814;28;20480;-37
2021/05/06 06:18:51;;;;;;;25.58;16.50;;;6.30;82.90;;;;;;5096703;28;20512;-37
2021/05/06 06:23:47;;;;;;;20.08;16.55;;;6.70;82.60;;;;;;5096293;28;20360;-36
2021/05/06 06:26:12;;;;;;;22.77;17.00;;;6.80;82.50;;;;;;5096610;28;20103;-37
2021/05/06 06:28:41;;;;;;;21.60;16.67;;;6.80;82.00;;;;;;5094985;28;20605;-36
2021/05/06 06:31:13;;;;;;;25.90;18.35;;;6.70;81.80;;;;;;5095358;28;20047;-36
2021/05/06 06:33:39;;;;;;;20.83;15.02;;;6.80;82.00;;;;;;5097738;28;20025;-36
2021/05/06 06:36:06;;;;;;;22.42;16.48;;;6.80;82.80;;;;;;5096325;28;20031;-36
2021/05/06 06:38:31;;;;;;;20.25;15.70;;;6.80;81.70;;;;;;5096741;28;20020;-36
2021/05/06 06:40:58;;;;;;;26.98;18.42;;;6.70;82.00;;;;;;5096183;28;20173;-36
2021/05/06 06:43:23;;;;;;;20.67;15.82;;;6.70;82.10;;;;;;5094648;28;20429;-36
2021/05/06 06:45:49;;;;;;;19.48;15.82;;;6.70;81.70;;;;;;5095803;28;20024;-36
2021/05/06 06:48:15;;;;;;;21.95;15.15;;;6.70;81.90;;;;;;5095810;28;20486;-36
2021/05/06 06:50:40;;;;;;;21.88;14.57;;;6.80;82.10;;;;;;5095767;28;20036;-36
2021/05/06 06:53:07;;;;;;;26.92;15.45;;;6.60;82.30;;;;;;5094296;28;20024;-36
2021/05/06 06:55:33;;;;;;;23.55;16.63;;;6.40;82.60;;;;;;5095258;28;20028;-38
2021/05/06 06:58:15;;;;;;;26.23;16.88;;;6.40;82.40;;;;;;5096030;28;20020;-36
2021/05/06 07:00:41;;;;;;;21.02;15.73;;;6.30;83.20;;;;;;5093767;28;20024;-37
2021/05/06 07:03:07;;;;;;;19.42;15.18;;;6.30;82.80;;;;;;5094740;28;20024;-36
2021/05/06 07:05:34;;;;;;;20.55;15.13;;;6.40;82.00;;;;;;5095268;28;20078;-36
2021/05/06 07:08:21;;;;;;;24.20;16.58;;;6.40;81.60;;;;;;5094920;28;20380;-35
2021/05/06 07:10:48;;;;;;;18.63;14.45;;;6.50;81.80;;;;;;5094834;28;20086;-35
2021/05/06 07:13:16;;;;;;;22.40;14.23;;;6.80;81.00;;;;;;5093097;28;20329;-36
2021/05/06 07:15:48;;;;;;;22.00;14.57;;;7.00;80.30;;;;;;5094616;28;20016;-36
2021/05/06 07:18:14;;;;;;;20.70;15.77;;;7.20;79.60;;;;;;5094737;28;20027;-35
2021/05/06 07:20:43;;;;;;;24.50;14.10;;;7.40;79.10;;;;;;5093288;28;20042;-37
2021/05/06 07:23:18;;;;;;;17.17;11.15;;;7.80;77.40;;;;;;5094804;28;20035;-36
2021/05/06 07:25:48;;;;;;;17.58;12.10;;;7.80;75.90;;;;;;5094970;28;20043;-36
2021/05/06 07:28:16;;;;;;;14.40;11.00;;;7.90;75.80;;;;;;5094466;28;20028;-37
2021/05/06 07:30:43;;;;;;;15.23;11.93;;;7.80;76.90;;;;;;5094438;28;20048;-36
2021/05/06 07:33:10;;;;;;;18.48;11.77;;;7.80;74.60;;;;;;5094872;28;20069;-37
2021/05/06 07:35:36;;;;;;;19.88;12.55;;;7.50;74.50;;;;;;5094529;28;20111;-37
2021/05/06 07:38:02;;;;;;;16.20;12.15;;;7.80;74.40;;;;;;5094324;28;20016;-37
2021/05/06 07:40:28;;;;;;;17.67;12.25;;;8.00;73.10;;;;;;5093422;28;20031;-37
2021/05/06 07:42:53;;;;;;;16.75;11.57;;;7.90;72.50;;;;;;5094441;28;20031;-36
2021/05/06 07:45:20;;;;;;;16.65;11.75;;;8.10;72.80;;;;;;5094169;28;20380;-36
2021/05/06 07:47:45;;;;;;;14.40;11.35;;;7.80;74.00;;;;;;5094339;28;20034;-37
2021/05/06 07:50:12;;;;;;;14.95;11.45;;;7.80;73.80;;;;;;5093875;28;20102;-36
2021/05/06 07:52:40;;;;;;;16.50;11.55;;;7.80;73.60;;;;;;5094447;28;20077;-37
2021/05/06 07:55:07;;;;;;;16.70;11.15;;;8.00;72.80;;;;;;5094121;28;20027;-37
2021/05/06 07:57:32;;;;;;;15.68;10.25;;;8.30;72.40;;;;;;5094347;28;20464;-37
2021/05/06 07:59:58;;;;;;;13.27;10.38;;;8.70;69.40;;;;;;5094215;28;20028;-36
2021/05/06 08:02:24;;;;;;;13.05;10.60;;;9.10;68.00;;;;;;5093934;28;20024;-37
2021/05/06 08:04:50;;;;;;;18.00;11.45;;;9.30;67.20;;;;;;5093890;28;20056;-37
2021/05/06 08:07:16;;;;;;;19.20;10.52;;;9.50;67.00;;;;;;5094177;28;20042;-36
2021/05/06 08:09:41;;;;;;;17.85;11.65;;;9.10;66.60;;;;;;5093886;28;20028;-36
2021/05/06 08:12:07;;;;;;;16.90;12.20;;;8.60;68.30;;;;;;5093789;28;20480;-38
2021/05/06 08:14:33;;;;;;;22.08;12.57;;;8.80;68.60;;;;;;5091694;28;20020;-36
2021/05/06 08:16:59;;;;;;;15.27;10.98;;;9.30;66.90;;;;;;5093285;28;20021;-36
2021/05/06 08:19:25;;;;;;;13.10;10.18;;;9.30;67.50;;;;;;5093613;28;20107;-36
2021/05/06 08:21:50;;;;;;;18.40;10.98;;;9.30;67.80;;;;;;5093878;28;20024;-35
2021/05/06 08:24:16;;;;;;;13.55;10.85;;;9.30;66.30;;;;;;5093194;28;20034;-36
2021/05/06 08:26:43;;;;;;;15.23;10.93;;;9.20;67.80;;;;;;5091853;28;20055;-37
2021/05/06 08:29:08;;;;;;;13.50;11.00;;;9.80;65.00;;;;;;5093152;28;20024;-37
2021/05/06 08:31:34;;;;;;;11.82;10.55;;;10.30;62.50;;;;;;5091369;28;20021;-38
2021/05/06 08:34:00;;;;;;;14.43;10.43;;;10.10;62.80;;;;;;5092717;28;20016;-36
2021/05/06 08:36:25;;;;;;;13.60;9.90;;;10.50;62.10;;;;;;5092907;28;20024;-37
2021/05/06 08:38:52;;;;;;;15.50;10.50;;;10.30;61.60;;;;;;5092991;28;20039;-37
2021/05/06 08:41:20;;;;;;;12.88;9.85;;;10.30;61.30;;;;;;5092830;28;20133;-37
2021/05/06 08:43:53;;;;;;;11.82;9.60;;;10.90;59.90;;;;;;5093018;28;20054;-36
2021/05/06 08:46:19;;;;;;;13.90;9.45;;;10.50;60.20;;;;;;5092813;28;20468;-36
2021/05/06 08:48:46;;;;;;;17.52;11.88;;;10.90;59.90;;;;;;5092368;28;20024;-37
2021/05/06 08:51:13;;;;;;;14.50;10.88;;;10.60;60.50;;;;;;5092221;28;20142;-37
2021/05/06 08:53:38;;;;;;;12.80;9.20;;;10.40;60.10;;;;;;5093012;28;20302;-36
2021/05/06 08:56:04;;;;;;;13.70;10.05;;;10.10;60.80;;;;;;5092752;28;20038;-37
2021/05/06 08:58:30;;;;;;;10.18;8.45;;;10.40;58.90;;;;;;5092660;28;20373;-38
2021/05/06 09:00:56;;;;;;;9.98;8.38;;;11.30;55.50;;;;;;5092174;28;20081;-37
2021/05/06 09:03:21;;;;;;;13.70;9.40;;;10.80;56.10;;;;;;5092422;28;20023;-37
2021/05/06 09:06:06;;;;;;;12.45;8.77;;;10.70;58.30;;;;;;5091209;28;20073;-37
2021/05/06 09:08:46;;;;;;;13.52;9.02;;;10.90;55.40;;;;;;5092432;28;20028;-36
2021/05/06 09:11:13;;;;;;;12.63;8.97;;;10.60;57.10;;;;;;5092546;28;20028;-35
2021/05/06 09:13:39;;;;;;;15.15;8.57;;;10.00;59.50;;;;;;5093021;28;20024;-37
2021/05/06 09:16:06;;;;;;;10.55;7.90;;;10.80;56.00;;;;;;5092733;28;20535;-37
2021/05/06 09:18:40;;;;;;;11.68;8.38;;;11.40;54.10;;;;;;5092864;28;20056;-36
2021/05/06 09:21:30;;;;;;;10.98;9.10;;;12.40;51.50;;;;;;5093578;28;20032;-39
2021/05/06 09:24:20;;;;;;;10.93;8.77;;;12.20;51.80;;;;;;5092748;28;20110;-36
2021/05/06 09:26:46;;;;;;;11.35;9.52;;;12.60;50.30;;;;;;5094098;28;20024;-36
2021/05/06 09:29:27;;;;;;;9.98;7.05;;;13.70;47.10;;;;;;5096716;28;20107;-37
2021/05/06 09:31:52;;;;;;;7.63;6.80;;;13.80;45.90;;;;;;5096790;28;20061;-36
2021/05/06 09:34:18;;;;;;;9.23;7.32;;;13.20;48.60;;;;;;5096796;28;20020;-36
2021/05/06 09:36:44;;;;;;;8.95;7.80;;;12.90;48.50;;;;;;5095326;28;20042;-38
2021/05/06 09:39:10;;;;;;;8.65;7.75;;;11.60;50.30;;;;;;5096586;28;20028;-36
2021/05/06 09:41:38;;;;;;;12.88;7.93;;;10.80;51.30;;;;;;5096882;28;20101;-38
2021/05/06 09:44:10;;;;;;;9.57;7.70;;;10.80;52.40;;;;;;5096593;28;20085;-36
2021/05/06 09:46:43;;;;;;;13.07;10.82;;;10.80;53.50;;;;;;5096249;28;20056;-36
2021/05/06 09:49:11;;;;;;;11.90;9.90;;;10.50;53.40;;;;;;5096332;28;20031;-36
2021/05/06 09:51:50;;;;;;;13.38;9.88;;;10.60;54.50;;;;;;5096148;28;20085;-36
2021/05/06 09:54:22;;;;;;;10.73;8.90;;;11.10;52.80;;;;;;5096074;28;20020;-36
2021/05/06 09:56:56;;;;;;;10.18;8.88;;;12.00;50.40;;;;;;5094789;28;20024;-40
2021/05/06 09:59:24;;;;;;;10.18;8.82;;;11.10;51.80;;;;;;5096543;28;20052;-37
2021/05/06 10:01:50;;;;;;;13.10;10.38;;;10.30;55.00;;;;;;5096329;28;20028;-36
2021/05/06 10:04:21;;;;;;;15.38;9.35;;;10.60;53.80;;;;;;5096194;28;20507;-36
2021/05/06 10:07:07;;;;;;;11.02;9.05;;;10.50;53.90;;;;;;5096158;28;20020;-38
2021/05/06 10:09:33;;;;;;;12.95;9.25;;;10.80;53.80;;;;;;5096144;28;20528;-36
2021/05/06 10:12:03;;;;;;;13.88;9.77;;;10.80;53.80;;;;;;5095753;28;20384;-37
2021/05/06 10:14:29;;;;;;;10.88;8.40;;;10.40;53.80;;;;;;5095458;28;20356;-36
2021/05/06 10:16:54;;;;;;;9.35;7.85;;;10.20;55.30;;;;;;5095964;28;20166;-36
2021/05/06 10:19:20;;;;;;;13.10;7.38;;;10.50;53.70;;;;;;5095850;28;20061;-37
2021/05/06 10:21:46;;;;;;;11.18;8.38;;;10.30;55.00;;;;;;5096198;28;20578;-35
2021/05/06 10:24:16;;;;;;;9.00;8.10;;;11.00;55.00;;;;;;5095705;28;20028;-36
2021/05/06 10:26:48;;;;;;;9.18;7.50;;;12.00;51.40;;;;;;5095458;28;20023;-37
2021/05/06 10:29:16;;;;;;;11.55;7.35;;;13.20;48.80;;;;;;5094272;28;20107;-37
2021/05/06 10:31:44;;;;;;;10.55;8.02;;;13.30;47.50;;;;;;5093898;28;20042;-38
2021/05/06 10:34:11;;;;;;;7.18;6.47;;;11.80;50.20;;;;;;5093911;28;20039;-37
2021/05/06 10:36:39;;;;;;;8.50;7.25;;;12.90;49.10;;;;;;5095259;28;20081;-38
2021/05/06 10:39:14;;;;;;;14.93;7.75;;;12.90;48.30;;;;;;5094333;28;20032;-37
2021/05/06 10:41:40;;;;;;;10.73;6.60;;;13.30;46.90;;;;;;5095484;28;20095;-37
2021/05/06 10:44:11;;;;;;;8.75;7.82;;;13.80;45.90;;;;;;5094037;28;20040;-37
2021/05/06 10:46:57;;;;;;;12.68;9.13;;;13.30;44.30;;;;;;5095463;28;20059;-38
2021/05/06 10:49:28;;;;;;;11.00;8.20;;;12.40;48.00;;;;;;5095448;28;20032;-37
2021/05/06 10:52:05;;;;;;;8.73;7.45;;;11.80;51.00;;;;;;5095032;28;20058;-36
2021/05/06 10:54:30;;;;;;;9.82;8.32;;;11.90;49.80;;;;;;5093520;28;20020;-37
2021/05/06 10:56:58;;;;;;;12.68;7.90;;;11.80;50.70;;;;;;5095327;28;20028;-38
2021/05/06 10:59:29;;;;;;;9.23;7.70;;;11.50;53.30;;;;;;5095399;28;20081;-40
2021/05/06 11:01:55;;;;;;;8.00;6.20;;;11.20;53.10;;;;;;5095203;28;20077;-37
2021/05/06 11:04:35;;;;;;;7.68;5.68;;;10.60;52.40;;;;;;5093854;28;20054;-37
2021/05/06 11:07:19;;;;;;;7.03;6.25;;;11.00;52.00;;;;;;5094983;28;20024;-37
2021/05/06 11:09:46;;;;;;;7.05;5.97;;;10.90;52.10;;;;;;5094574;28;20043;-37
2021/05/06 11:12:29;;;;;;;6.97;6.18;;;10.90;51.60;;;;;;5094933;28;20050;-37
2021/05/06 11:15:05;;;;;;;4.30;3.53;;;11.20;50.50;;;;;;5094796;28;20028;-37
2021/05/06 11:17:42;;;;;;;4.00;3.20;;;11.10;46.40;;;;;;5093233;28;20024;-37
2021/05/06 11:20:14;;;;;;;7.38;3.53;;;12.50;44.40;;;;;;5094543;28;20028;-37
2021/05/06 11:22:46;;;;;;;2.83;2.53;;;12.50;43.50;;;;;;5094353;28;20123;-36
2021/05/06 11:25:31;;;;;;;6.18;3.13;;;13.60;41.10;;;;;;5093086;28;20066;-36
2021/05/06 11:28:03;;;;;;;4.00;3.13;;;14.80;36.60;;;;;;5092816;28;20031;-38
2021/05/06 11:30:33;;;;;;;6.05;3.13;;;15.80;35.70;;;;;;5093247;28;20028;-38
2021/05/06 11:33:35;;;;;;;4.93;3.78;;;15.30;35.40;;;;;;5094721;28;20032;-37
2021/05/06 11:36:11;;;;;;;5.43;3.72;;;15.80;34.70;;;;;;5094895;28;20491;-37
2021/05/06 11:41:06;;;;;;;4.15;3.75;;;16.10;34.90;;;;;;5094937;28;20124;-38
2021/05/06 11:43:34;;;;;;;4.82;4.15;;;15.70;35.60;;;;;;5094785;28;20028;-37
2021/05/06 11:46:12;;;;;;;5.88;3.90;;;15.80;36.40;;;;;;5094817;28;20032;-39
2021/05/06 11:48:42;;;;;;;5.60;3.90;;;14.80;38.00;;;;;;5094114;28;20111;-38
2021/05/06 11:51:09;;;;;;;6.25;4.07;;;14.80;37.10;;;;;;5093789;28;20130;-37
2021/05/06 11:53:37;;;;;;;7.82;4.63;;;14.20;39.50;;;;;;5094157;28;20416;-38
2021/05/06 11:56:14;;;;;;;4.43;3.42;;;14.10;39.70;;;;;;5093405;28;20078;-36
2021/05/06 11:58:42;;;;;;;5.25;4.68;;;13.30;40.70;;;;;;5093752;28;20024;-38
2021/05/06 12:01:12;;;;;;;5.00;4.00;;;13.30;40.60;;;;;;5093570;28;20024;-36
2021/05/06 12:03:40;;;;;;;5.00;4.18;;;13.20;40.80;;;;;;5093605;28;20103;-36
2021/05/06 12:06:07;;;;;;;6.05;4.38;;;12.60;42.00;;;;;;5093264;28;20111;-36
2021/05/06 12:08:45;;;;;;;6.78;4.32;;;13.40;41.80;;;;;;5092275;28;20074;-36
2021/05/06 12:11:12;;;;;;;6.28;4.10;;;13.50;40.40;;;;;;5094146;28;20371;-36
2021/05/06 12:13:41;;;;;;;6.72;4.85;;;15.00;37.10;;;;;;5093614;28;20016;-37
2021/05/06 12:16:11;;;;;;;8.30;4.32;;;14.00;38.80;;;;;;5093984;28;20034;-37
2021/05/06 12:18:37;;;;;;;7.60;4.43;;;14.20;39.70;;;;;;5075884;28;20372;-39
2021/05/06 12:21:05;;;;;;;5.10;4.45;;;14.40;39.70;;;;;;5092818;28;20032;-38
2021/05/06 12:23:31;;;;;;;5.32;4.18;;;14.10;40.90;;;;;;5094033;28;20437;-38
2021/05/06 12:25:57;;;;;;;8.55;5.28;;;14.40;39.50;;;;;;5093458;28;20120;-38
2021/05/06 12:28:23;;;;;;;5.28;4.35;;;14.70;38.90;;;;;;5091606;28;20028;-39
2021/05/06 12:30:57;;;;;;;5.32;4.05;;;13.70;40.80;;;;;;5092153;28;20016;-40
2021/05/06 12:33:33;;;;;;;5.50;4.18;;;14.00;40.90;;;;;;5075517;28;20365;-38
2021/05/06 12:35:59;;;;;;;6.15;4.20;;;13.90;40.90;;;;;;5093241;28;20016;-40
2021/05/06 12:38:25;;;;;;;6.10;4.38;;;14.00;40.10;;;;;;5093091;28;20095;-38
2021/05/06 12:40:52;;;;;;;5.28;4.07;;;13.50;41.50;;;;;;5093167;28;20101;-38
2021/05/06 12:43:23;;;;;;;6.68;3.83;;;13.20;42.20;;;;;;5093442;28;20400;-38
2021/05/06 12:46:09;;;;;;;7.10;4.00;;;12.90;41.60;;;;;;5092801;28;20111;-39
2021/05/06 12:48:41;;;;;;;5.93;4.00;;;13.30;41.20;;;;;;5092553;28;20090;-38
2021/05/06 12:51:08;;;;;;;5.95;3.97;;;12.80;42.30;;;;;;5092542;28;20056;-37
2021/05/06 12:53:35;;;;;;;8.75;4.25;;;13.30;41.40;;;;;;5092909;28;20024;-38
2021/05/06 12:56:01;;;;;;;4.65;4.25;;;13.30;41.10;;;;;;5092734;28;20016;-37
2021/05/06 12:58:28;;;;;;;5.65;4.07;;;13.20;42.00;;;;;;5092273;28;20103;-37
2021/05/06 13:00:55;;;;;;;5.95;3.38;;;13.60;40.70;;;;;;5091943;28;20479;-36
2021/05/06 13:03:46;;;;;;;3.45;3.05;;;14.40;37.70;;;;;;5092795;28;20074;-38
2021/05/06 13:06:17;;;;;;;2.90;2.50;;;14.80;36.50;;;;;;5092488;28;20111;-38
2021/05/06 13:08:45;;;;;;;4.15;2.60;;;14.20;36.80;;;;;;5091521;28;20357;-37
2021/05/06 13:11:13;;;;;;;3.03;1.95;;;14.20;36.10;;;;;;5092626;28;20024;-37
2021/05/06 13:13:49;;;;;;;5.95;2.35;;;13.50;35.50;;;;;;5093108;28;20394;-36
2021/05/06 13:16:17;;;;;;;3.50;2.15;;;13.80;35.50;;;;;;5091478;28;20016;-37
2021/05/06 13:19:03;;;;;;;2.95;2.13;;;14.50;34.50;;;;;;5092597;28;20348;-36
2021/05/06 13:21:29;;;;;;;2.92;1.50;;;14.40;32.70;;;;;;5092839;28;20026;-37
2021/05/06 13:23:56;;;;;;;1.55;1.45;;;13.90;32.40;;;;;;5093575;28;20363;-37
2021/05/06 13:26:37;;;;;;;2.40;1.65;;;14.10;32.40;;;;;;5093155;28;20020;-37
2021/05/06 13:29:15;;;;;;;4.57;2.55;;;14.90;30.10;;;;;;5092830;28;20426;-37
2021/05/06 13:31:43;;;;;;;2.50;2.17;;;14.40;31.10;;;;;;5092740;28;20027;-37
2021/05/06 13:34:18;;;;;;;3.55;1.58;;;14.50;32.00;;;;;;5093187;28;20016;-38
2021/05/06 13:37:01;;;;;;;2.78;1.70;;;15.70;30.70;;;;;;5092921;28;20379;-36
2021/05/06 13:39:28;;;;;;;3.92;1.58;;;14.70;31.10;;;;;;5090843;28;20024;-36
2021/05/06 13:41:54;;;;;;;3.85;1.52;;;13.80;32.50;;;;;;5092382;28;20051;-37
2021/05/06 13:44:25;;;;;;;3.60;2.00;;;13.80;32.60;;;;;;5091429;28;20430;-37
2021/05/06 13:46:54;;;;;;;4.65;1.77;;;15.20;31.00;;;;;;5092789;28;20028;-37
2021/05/06 13:49:32;;;;;;;2.83;2.08;;;16.00;30.00;;;;;;5057972;28;20559;-37
2021/05/06 13:52:00;;;;;;;2.95;1.75;;;16.30;29.50;;;;;;5091008;28;20040;-38
2021/05/06 13:54:28;;;;;;;1.95;1.58;;;15.50;29.90;;;;;;5092010;28;20035;-36
2021/05/06 13:56:55;;;;;;;7.82;2.20;;;13.50;33.10;;;;;;5091078;28;20020;-38
2021/05/06 13:59:21;;;;;;;4.03;2.35;;;14.00;32.10;;;;;;5091294;28;20383;-35
2021/05/06 14:01:53;;;;;;;2.80;1.67;;;13.80;32.60;;;;;;5092232;28;20408;-37
2021/05/06 14:04:19;;;;;;;2.45;1.48;;;14.70;31.30;;;;;;5095129;28;20028;-37
2021/05/06 14:06:45;;;;;;;5.80;2.15;;;14.90;31.20;;;;;;5091124;28;20023;-37
2021/05/06 14:09:15;;;;;;;3.47;2.22;;;15.10;30.50;;;;;;5090682;28;20034;-37
2021/05/06 14:11:42;;;;;;;2.80;1.77;;;14.70;31.30;;;;;;5091402;28;20021;-36
2021/05/06 14:14:09;;;;;;;4.57;2.10;;;14.50;31.60;;;;;;5075988;28;20132;-38
2021/05/06 14:16:35;;;;;;;3.15;2.60;;;14.20;32.50;;;;;;5096139;28;20027;-37
2021/05/06 14:19:02;;;;;;;6.50;2.70;;;13.40;34.10;;;;;;5095724;28;20020;-37
2021/05/06 14:21:29;;;;;;;5.22;2.28;;;13.90;33.40;;;;;;5094549;28;20031;-36
2021/05/06 14:23:55;;;;;;;3.67;2.58;;;13.80;33.30;;;;;;5094470;28;20097;-37
2021/05/06 14:26:21;;;;;;;6.85;3.97;;;14.10;35.50;;;;;;5095993;28;20480;-37
2021/05/06 14:28:48;;;;;;;6.30;3.67;;;14.00;37.20;;;;;;5094028;28;20036;-36
2021/05/06 14:31:14;;;;;;;6.25;3.53;;;14.00;37.40;;;;;;5095871;28;20111;-37
2021/05/06 14:33:40;;;;;;;8.38;3.35;;;13.70;37.30;;;;;;5095375;28;20023;-37
2021/05/06 14:36:09;;;;;;;5.68;4.25;;;13.80;37.40;;;;;;5095116;28;20024;-37
2021/05/06 14:38:37;;;;;;;5.07;3.38;;;13.60;38.00;;;;;;5095256;28;20020;-36
2021/05/06 14:41:04;;;;;;;3.95;3.22;;;13.40;38.00;;;;;;5094870;28;20106;-36
2021/05/06 14:43:30;;;;;;;5.50;3.15;;;13.60;37.40;;;;;;5095139;28;20062;-37
2021/05/06 14:45:56;;;;;;;4.15;3.65;;;13.60;36.90;;;;;;5094312;28;20027;-38
2021/05/06 14:48:22;;;;;;;4.60;3.45;;;13.30;37.00;;;;;;5093887;28;20025;-38
2021/05/06 14:50:48;;;;;;;7.20;3.78;;;13.40;36.90;;;;;;5094690;28;20115;-37
2021/05/06 14:53:14;;;;;;;5.10;3.03;;;13.60;37.60;;;;;;5094803;28;20024;-37
2021/05/06 14:55:41;;;;;;;4.20;3.40;;;13.70;36.30;;;;;;5093451;28;20023;-39
2021/05/06 14:58:06;;;;;;;5.05;2.80;;;13.40;36.80;;;;;;5095184;28;20464;-36
2021/05/06 15:00:33;;;;;;;5.05;3.25;;;13.40;37.20;;;;;;5094871;28;20031;-37
2021/05/06 15:03:00;;;;;;;3.88;2.85;;;13.50;36.60;;;;;;5093835;28;20400;-36
2021/05/06 15:05:25;;;;;;;4.57;2.90;;;13.50;36.60;;;;;;5095244;28;20020;-37
2021/05/06 15:07:51;;;;;;;4.45;2.95;;;13.80;35.10;;;;;;5093632;28;20035;-38
2021/05/06 15:10:17;;;;;;;3.35;2.80;;;13.40;36.10;;;;;;5094773;28;20032;-36
2021/05/06 15:12:47;;;;;;;6.75;3.30;;;13.50;36.70;;;;;;5094550;28;20073;-37
2021/05/06 15:15:14;;;;;;;4.83;3.00;;;13.30;37.00;;;;;;5094825;28;20069;-36
2021/05/06 15:17:40;;;;;;;4.43;3.03;;;13.40;35.30;;;;;;5094899;28;20347;-38
2021/05/06 15:20:07;;;;;;;3.88;2.60;;;13.30;36.00;;;;;;5094624;28;20423;-38
2021/05/06 15:22:33;;;;;;;9.02;3.92;;;13.60;36.00;;;;;;5094523;28;20435;-37
2021/05/06 15:24:59;;;;;;;6.68;3.63;;;13.30;36.50;;;;;;5094682;28;20031;-41
2021/05/06 15:27:25;;;;;;;7.18;3.10;;;13.10;36.80;;;;;;5094810;28;20028;-37
2021/05/06 15:29:51;;;;;;;5.57;2.78;;;12.80;37.60;;;;;;5093324;28;20395;-36
2021/05/06 15:32:17;;;;;;;4.28;3.00;;;13.00;37.30;;;;;;5094472;28;20016;-37
2021/05/06 15:34:43;;;;;;;7.53;3.10;;;12.80;37.10;;;;;;5094455;28;20065;-38
2021/05/06 15:37:08;;;;;;;7.72;3.08;;;12.90;37.50;;;;;;5094836;28;20047;-37
2021/05/06 15:39:36;;;;;;;4.63;2.97;;;12.80;38.00;;;;;;5095093;28;20020;-37
2021/05/06 15:42:02;;;;;;;5.03;3.00;;;12.90;37.40;;;;;;5093264;28;20039;-37
2021/05/06 15:44:28;;;;;;;3.60;2.53;;;13.20;36.80;;;;;;5093068;28;20047;-38
2021/05/06 15:46:58;;;;;;;5.40;3.38;;;13.10;37.40;;;;;;5094472;28;20024;-37
2021/05/06 15:49:30;;;;;;;4.88;3.63;;;13.30;36.90;;;;;;5094293;28;20028;-36
2021/05/06 15:51:56;;;;;;;6.07;2.47;;;13.30;36.40;;;;;;5093775;28;20048;-37
2021/05/06 15:54:22;;;;;;;9.25;3.20;;;13.20;36.40;;;;;;5092500;28;20379;-37
2021/05/06 15:56:47;;;;;;;6.13;2.60;;;12.90;36.90;;;;;;5093667;28;20016;-37
2021/05/06 15:59:13;;;;;;;7.90;2.67;;;13.00;37.00;;;;;;5093581;28;20103;-37
2021/05/06 16:01:39;;;;;;;5.50;2.90;;;13.10;36.80;;;;;;5094247;28;20058;-36
2021/05/06 16:04:07;;;;;;;7.50;2.80;;;12.80;38.70;;;;;;5093607;28;20028;-37
2021/05/06 16:06:33;;;;;;;6.40;3.47;;;12.80;38.10;;;;;;5093730;28;20437;-37
2021/05/06 16:08:59;;;;;;;8.10;3.33;;;12.60;38.50;;;;;;5094151;28;20048;-39
2021/05/06 16:11:25;;;;;;;4.53;3.42;;;12.60;38.30;;;;;;5094154;28;20484;-36
2021/05/06 16:13:51;;;;;;;4.18;2.85;;;12.70;39.00;;;;;;5094188;28;20049;-37
2021/05/06 16:16:17;;;;;;;3.42;2.80;;;12.60;40.10;;;;;;5093811;28;20028;-38
2021/05/06 16:18:47;;;;;;;5.97;3.88;;;12.70;39.50;;;;;;5094249;28;20357;-37